sensor_id;sensor_type;location;lat;lon;timestamp;P1;durP1;ratioP1;P2;durP2;ratioP2
40537;SDS011;27925;41.874;12.526;2024-02-26T00:01:39;11.18;;;5.93;;
40537;SDS011;27925;41.874;12.526;2024-02-26T00:04:05;9.30;;;5.28;;
40537;SDS011;27925;41.874;12.526;2024-02-26T00:06:31;12.73;;;5.70;;
40537;SDS011;27925;41.874;12.526;2024-02-26T00:08:57;12.23;;;6.18;;
40537;SDS011;27925;41.874;12.526;2024-02-26T00:11:23;10.10;;;5.88;;
40537;SDS011;27925;41.874;12.526;2024-02-26T00:13:49;10.50;;;6.40;;
40537;SDS011;27925;41.874;12.526;2024-02-26T00:16:14;13.30;;;6.13;;
40537;SDS011;27925;41.874;12.526;2024-02-26T00:18:40;9.85;;;5.55;;
40537;SDS011;27925;41.874;12.526;2024-02-26T00:21:06;10.23;;;5.55;;
40537;SDS011;27925;41.874;12.526;2024-02-26T00:23:32;11.82;;;5.93;;
40537;SDS011;27925;41.874;12.526;2024-02-26T00:25:57;13.68;;;5.90;;
40537;SDS011;27925;41.874;12.526;2024-02-26T00:28:23;11.93;;;6.15;;
40537;SDS011;27925;41.874;12.526;2024-02-26T00:30:49;10.57;;;6.53;;
40537;SDS011;27925;41.874;12.526;2024-02-26T00:33:20;10.63;;;6.03;;
40537;SDS011;27925;41.874;12.526;2024-02-26T00:35:47;11.13;;;6.65;;
40537;SDS011;27925;41.874;12.526;2024-02-26T00:38:12;13.52;;;6.43;;
40537;SDS011;27925;41.874;12.526;2024-02-26T00:40:38;13.40;;;6.90;;
40537;SDS011;27925;41.874;12.526;2024-02-26T00:43:05;10.52;;;6.43;;
40537;SDS011;27925;41.874;12.526;2024-02-26T00:45:34;12.07;;;7.00;;
40537;SDS011;27925;41.874;12.526;2024-02-26T00:48:00;12.18;;;6.97;;
40537;SDS011;27925;41.874;12.526;2024-02-26T00:50:29;12.20;;;7.68;;
40537;SDS011;27925;41.874;12.526;2024-02-26T00:52:58;10.60;;;6.95;;
40537;SDS011;27925;41.874;12.526;2024-02-26T00:55:24;12.52;;;7.35;;
40537;SDS011;27925;41.874;12.526;2024-02-26T00:57:50;10.95;;;7.47;;
40537;SDS011;27925;41.874;12.526;2024-02-26T01:00:15;11.88;;;7.75;;
40537;SDS011;27925;41.874;12.526;2024-02-26T01:02:41;14.77;;;7.93;;
40537;SDS011;27925;41.874;12.526;2024-02-26T01:05:08;16.00;;;8.60;;
40537;SDS011;27925;41.874;12.526;2024-02-26T01:07:36;14.25;;;8.70;;
40537;SDS011;27925;41.874;12.526;2024-02-26T01:10:02;16.35;;;10.18;;
40537;SDS011;27925;41.874;12.526;2024-02-26T01:12:29;17.52;;;10.48;;
40537;SDS011;27925;41.874;12.526;2024-02-26T01:14:54;18.02;;;11.85;;
40537;SDS011;27925;41.874;12.526;2024-02-26T01:17:20;15.95;;;11.88;;
40537;SDS011;27925;41.874;12.526;2024-02-26T01:19:46;19.88;;;13.15;;
40537;SDS011;27925;41.874;12.526;2024-02-26T01:22:12;19.40;;;12.77;;
40537;SDS011;27925;41.874;12.526;2024-02-26T01:24:38;18.90;;;12.98;;
40537;SDS011;27925;41.874;12.526;2024-02-26T01:27:03;16.02;;;11.88;;
40537;SDS011;27925;41.874;12.526;2024-02-26T01:29:29;18.63;;;11.57;;
40537;SDS011;27925;41.874;12.526;2024-02-26T01:31:55;19.05;;;12.38;;
40537;SDS011;27925;41.874;12.526;2024-02-26T01:34:21;19.40;;;12.48;;
40537;SDS011;27925;41.874;12.526;2024-02-26T01:36:47;18.00;;;11.35;;
40537;SDS011;27925;41.874;12.526;2024-02-26T01:39:12;16.88;;;12.73;;
40537;SDS011;27925;41.874;12.526;2024-02-26T01:41:39;20.52;;;12.60;;
40537;SDS011;27925;41.874;12.526;2024-02-26T01:44:05;14.50;;;10.68;;
40537;SDS011;27925;41.874;12.526;2024-02-26T01:46:31;18.92;;;12.23;;
40537;SDS011;27925;41.874;12.526;2024-02-26T01:48:59;17.40;;;11.55;;
40537;SDS011;27925;41.874;12.526;2024-02-26T01:51:26;19.60;;;11.93;;
40537;SDS011;27925;41.874;12.526;2024-02-26T01:53:53;18.08;;;11.50;;
40537;SDS011;27925;41.874;12.526;2024-02-26T01:56:19;15.00;;;10.80;;
40537;SDS011;27925;41.874;12.526;2024-02-26T01:58:46;17.50;;;12.05;;
40537;SDS011;27925;41.874;12.526;2024-02-26T02:01:13;16.73;;;11.70;;
40537;SDS011;27925;41.874;12.526;2024-02-26T02:03:43;18.00;;;11.57;;
40537;SDS011;27925;41.874;12.526;2024-02-26T02:06:10;19.95;;;12.38;;
40537;SDS011;27925;41.874;12.526;2024-02-26T02:08:37;17.33;;;11.65;;
40537;SDS011;27925;41.874;12.526;2024-02-26T02:11:03;19.00;;;12.70;;
40537;SDS011;27925;41.874;12.526;2024-02-26T02:13:29;17.27;;;11.77;;
40537;SDS011;27925;41.874;12.526;2024-02-26T02:15:55;17.95;;;11.15;;
40537;SDS011;27925;41.874;12.526;2024-02-26T02:18:21;19.27;;;11.38;;
40537;SDS011;27925;41.874;12.526;2024-02-26T02:20:46;18.23;;;11.30;;
40537;SDS011;27925;41.874;12.526;2024-02-26T02:23:12;17.73;;;12.00;;
40537;SDS011;27925;41.874;12.526;2024-02-26T02:25:39;18.45;;;12.18;;
40537;SDS011;27925;41.874;12.526;2024-02-26T02:28:04;16.27;;;11.00;;
40537;SDS011;27925;41.874;12.526;2024-02-26T02:30:31;18.20;;;11.85;;
40537;SDS011;27925;41.874;12.526;2024-02-26T02:32:58;17.88;;;11.15;;
40537;SDS011;27925;41.874;12.526;2024-02-26T02:35:24;19.15;;;11.38;;
40537;SDS011;27925;41.874;12.526;2024-02-26T02:37:53;15.73;;;11.05;;
40537;SDS011;27925;41.874;12.526;2024-02-26T02:40:21;15.88;;;11.35;;
40537;SDS011;27925;41.874;12.526;2024-02-26T02:42:47;15.30;;;11.68;;
40537;SDS011;27925;41.874;12.526;2024-02-26T02:45:12;16.48;;;10.85;;
40537;SDS011;27925;41.874;12.526;2024-02-26T02:47:38;15.82;;;11.02;;
40537;SDS011;27925;41.874;12.526;2024-02-26T02:50:04;17.73;;;10.43;;
40537;SDS011;27925;41.874;12.526;2024-02-26T02:52:30;14.68;;;10.27;;
40537;SDS011;27925;41.874;12.526;2024-02-26T02:54:56;15.38;;;10.50;;
40537;SDS011;27925;41.874;12.526;2024-02-26T02:57:21;16.10;;;10.73;;
40537;SDS011;27925;41.874;12.526;2024-02-26T02:59:47;14.75;;;10.18;;
40537;SDS011;27925;41.874;12.526;2024-02-26T03:02:13;18.38;;;10.90;;
40537;SDS011;27925;41.874;12.526;2024-02-26T03:04:39;18.05;;;11.50;;
40537;SDS011;27925;41.874;12.526;2024-02-26T03:07:05;13.50;;;10.18;;
40537;SDS011;27925;41.874;12.526;2024-02-26T03:09:31;17.42;;;11.15;;
40537;SDS011;27925;41.874;12.526;2024-02-26T03:11:57;15.45;;;10.88;;
40537;SDS011;27925;41.874;12.526;2024-02-26T03:14:22;16.13;;;9.65;;
40537;SDS011;27925;41.874;12.526;2024-02-26T03:16:48;15.15;;;9.90;;
40537;SDS011;27925;41.874;12.526;2024-02-26T03:19:14;15.30;;;10.23;;
40537;SDS011;27925;41.874;12.526;2024-02-26T03:21:43;16.40;;;10.48;;
40537;SDS011;27925;41.874;12.526;2024-02-26T03:24:08;15.55;;;9.85;;
40537;SDS011;27925;41.874;12.526;2024-02-26T03:26:35;15.23;;;10.40;;
40537;SDS011;27925;41.874;12.526;2024-02-26T03:29:02;15.45;;;10.75;;
40537;SDS011;27925;41.874;12.526;2024-02-26T03:31:28;16.42;;;10.85;;
40537;SDS011;27925;41.874;12.526;2024-02-26T03:33:54;16.30;;;10.75;;
40537;SDS011;27925;41.874;12.526;2024-02-26T03:36:19;17.08;;;10.02;;
40537;SDS011;27925;41.874;12.526;2024-02-26T03:38:46;18.55;;;10.43;;
40537;SDS011;27925;41.874;12.526;2024-02-26T03:41:13;18.23;;;11.18;;
40537;SDS011;27925;41.874;12.526;2024-02-26T03:43:38;15.38;;;10.52;;
40537;SDS011;27925;41.874;12.526;2024-02-26T03:46:08;16.30;;;11.10;;
40537;SDS011;27925;41.874;12.526;2024-02-26T03:48:38;15.30;;;11.00;;
40537;SDS011;27925;41.874;12.526;2024-02-26T03:51:05;17.92;;;10.80;;
40537;SDS011;27925;41.874;12.526;2024-02-26T03:53:31;14.13;;;10.55;;
40537;SDS011;27925;41.874;12.526;2024-02-26T03:55:56;17.70;;;10.38;;
40537;SDS011;27925;41.874;12.526;2024-02-26T03:58:22;13.75;;;9.82;;
40537;SDS011;27925;41.874;12.526;2024-02-26T04:00:48;16.98;;;10.77;;
40537;SDS011;27925;41.874;12.526;2024-02-26T04:03:13;15.43;;;11.15;;
40537;SDS011;27925;41.874;12.526;2024-02-26T04:05:39;17.90;;;11.43;;
40537;SDS011;27925;41.874;12.526;2024-02-26T04:08:05;15.30;;;11.50;;
40537;SDS011;27925;41.874;12.526;2024-02-26T04:10:32;13.63;;;9.70;;
40537;SDS011;27925;41.874;12.526;2024-02-26T04:13:00;15.98;;;10.38;;
40537;SDS011;27925;41.874;12.526;2024-02-26T04:15:26;19.08;;;10.40;;
40537;SDS011;27925;41.874;12.526;2024-02-26T04:17:51;15.95;;;10.75;;
40537;SDS011;27925;41.874;12.526;2024-02-26T04:20:17;15.70;;;10.07;;
40537;SDS011;27925;41.874;12.526;2024-02-26T04:22:43;15.20;;;10.45;;
40537;SDS011;27925;41.874;12.526;2024-02-26T04:25:09;15.85;;;10.88;;
40537;SDS011;27925;41.874;12.526;2024-02-26T04:27:35;16.63;;;10.52;;
40537;SDS011;27925;41.874;12.526;2024-02-26T04:30:00;15.82;;;10.77;;
40537;SDS011;27925;41.874;12.526;2024-02-26T04:32:26;15.52;;;10.75;;
40537;SDS011;27925;41.874;12.526;2024-02-26T04:34:53;18.10;;;10.82;;
40537;SDS011;27925;41.874;12.526;2024-02-26T04:37:19;15.52;;;9.63;;
40537;SDS011;27925;41.874;12.526;2024-02-26T04:39:44;16.95;;;10.85;;
40537;SDS011;27925;41.874;12.526;2024-02-26T04:42:10;20.95;;;11.88;;
40537;SDS011;27925;41.874;12.526;2024-02-26T04:44:36;12.35;;;9.15;;
40537;SDS011;27925;41.874;12.526;2024-02-26T04:47:02;18.13;;;10.80;;
40537;SDS011;27925;41.874;12.526;2024-02-26T04:49:28;17.95;;;10.85;;
40537;SDS011;27925;41.874;12.526;2024-02-26T04:51:53;15.48;;;10.38;;
40537;SDS011;27925;41.874;12.526;2024-02-26T04:54:19;15.15;;;11.40;;
40537;SDS011;27925;41.874;12.526;2024-02-26T04:56:45;17.23;;;10.05;;
40537;SDS011;27925;41.874;12.526;2024-02-26T04:59:11;14.10;;;9.73;;
40537;SDS011;27925;41.874;12.526;2024-02-26T05:01:37;15.70;;;9.18;;
40537;SDS011;27925;41.874;12.526;2024-02-26T05:04:03;16.65;;;10.15;;
40537;SDS011;27925;41.874;12.526;2024-02-26T05:06:29;15.70;;;9.35;;
40537;SDS011;27925;41.874;12.526;2024-02-26T05:08:54;14.00;;;9.55;;
40537;SDS011;27925;41.874;12.526;2024-02-26T05:11:20;14.75;;;9.65;;
40537;SDS011;27925;41.874;12.526;2024-02-26T05:13:47;13.95;;;10.00;;
40537;SDS011;27925;41.874;12.526;2024-02-26T05:16:13;14.15;;;10.25;;
40537;SDS011;27925;41.874;12.526;2024-02-26T05:18:39;14.60;;;9.43;;
40537;SDS011;27925;41.874;12.526;2024-02-26T05:21:04;15.02;;;10.23;;
40537;SDS011;27925;41.874;12.526;2024-02-26T05:23:30;13.18;;;9.40;;
40537;SDS011;27925;41.874;12.526;2024-02-26T05:25:56;26.55;;;14.75;;
40537;SDS011;27925;41.874;12.526;2024-02-26T05:28:21;20.00;;;11.48;;
40537;SDS011;27925;41.874;12.526;2024-02-26T05:30:47;14.18;;;10.45;;
40537;SDS011;27925;41.874;12.526;2024-02-26T05:33:13;14.82;;;9.52;;
40537;SDS011;27925;41.874;12.526;2024-02-26T05:35:38;16.42;;;9.07;;
40537;SDS011;27925;41.874;12.526;2024-02-26T05:38:05;14.52;;;9.00;;
40537;SDS011;27925;41.874;12.526;2024-02-26T05:40:31;16.02;;;9.57;;
40537;SDS011;27925;41.874;12.526;2024-02-26T05:42:56;14.73;;;9.13;;
40537;SDS011;27925;41.874;12.526;2024-02-26T05:45:22;14.25;;;9.55;;
40537;SDS011;27925;41.874;12.526;2024-02-26T05:47:48;16.65;;;9.10;;
40537;SDS011;27925;41.874;12.526;2024-02-26T05:50:15;14.50;;;9.50;;
40537;SDS011;27925;41.874;12.526;2024-02-26T05:52:40;16.23;;;9.40;;
40537;SDS011;27925;41.874;12.526;2024-02-26T05:55:07;14.68;;;8.70;;
40537;SDS011;27925;41.874;12.526;2024-02-26T05:57:33;14.30;;;9.50;;
40537;SDS011;27925;41.874;12.526;2024-02-26T05:59:59;14.98;;;9.23;;
40537;SDS011;27925;41.874;12.526;2024-02-26T06:02:29;14.77;;;10.40;;
40537;SDS011;27925;41.874;12.526;2024-02-26T06:04:55;16.85;;;9.02;;
40537;SDS011;27925;41.874;12.526;2024-02-26T06:07:21;14.32;;;8.95;;
40537;SDS011;27925;41.874;12.526;2024-02-26T06:09:47;13.52;;;8.95;;
40537;SDS011;27925;41.874;12.526;2024-02-26T06:12:13;17.45;;;9.32;;
40537;SDS011;27925;41.874;12.526;2024-02-26T06:14:39;15.13;;;9.65;;
40537;SDS011;27925;41.874;12.526;2024-02-26T06:17:05;12.90;;;8.70;;
40537;SDS011;27925;41.874;12.526;2024-02-26T06:19:32;19.60;;;9.20;;
40537;SDS011;27925;41.874;12.526;2024-02-26T06:21:57;14.68;;;8.82;;
40537;SDS011;27925;41.874;12.526;2024-02-26T06:24:23;15.48;;;9.50;;
40537;SDS011;27925;41.874;12.526;2024-02-26T06:26:49;19.23;;;10.93;;
40537;SDS011;27925;41.874;12.526;2024-02-26T06:29:15;15.02;;;10.15;;
40537;SDS011;27925;41.874;12.526;2024-02-26T06:31:40;15.65;;;10.48;;
40537;SDS011;27925;41.874;12.526;2024-02-26T06:34:06;18.63;;;10.65;;
40537;SDS011;27925;41.874;12.526;2024-02-26T06:36:32;14.95;;;11.07;;
40537;SDS011;27925;41.874;12.526;2024-02-26T06:38:58;15.38;;;9.93;;
40537;SDS011;27925;41.874;12.526;2024-02-26T06:41:24;15.75;;;10.43;;
40537;SDS011;27925;41.874;12.526;2024-02-26T06:43:53;14.77;;;9.85;;
40537;SDS011;27925;41.874;12.526;2024-02-26T06:46:19;17.08;;;9.75;;
40537;SDS011;27925;41.874;12.526;2024-02-26T06:48:45;15.60;;;9.85;;
40537;SDS011;27925;41.874;12.526;2024-02-26T06:51:10;19.08;;;10.32;;
40537;SDS011;27925;41.874;12.526;2024-02-26T06:53:36;13.77;;;9.15;;
40537;SDS011;27925;41.874;12.526;2024-02-26T06:56:02;13.57;;;8.38;;
40537;SDS011;27925;41.874;12.526;2024-02-26T06:58:28;18.02;;;8.32;;
40537;SDS011;27925;41.874;12.526;2024-02-26T07:00:53;12.02;;;8.65;;
40537;SDS011;27925;41.874;12.526;2024-02-26T07:03:19;14.20;;;8.10;;
40537;SDS011;27925;41.874;12.526;2024-02-26T07:05:44;15.63;;;8.70;;
40537;SDS011;27925;41.874;12.526;2024-02-26T07:08:11;14.52;;;8.60;;
40537;SDS011;27925;41.874;12.526;2024-02-26T07:10:36;15.43;;;8.10;;
40537;SDS011;27925;41.874;12.526;2024-02-26T07:13:02;15.88;;;8.13;;
40537;SDS011;27925;41.874;12.526;2024-02-26T07:15:28;14.13;;;7.75;;
40537;SDS011;27925;41.874;12.526;2024-02-26T07:17:54;13.63;;;7.90;;
40537;SDS011;27925;41.874;12.526;2024-02-26T07:20:20;16.50;;;7.88;;
40537;SDS011;27925;41.874;12.526;2024-02-26T07:22:45;13.15;;;8.27;;
40537;SDS011;27925;41.874;12.526;2024-02-26T07:25:11;12.38;;;7.72;;
40537;SDS011;27925;41.874;12.526;2024-02-26T07:27:39;15.77;;;8.52;;
40537;SDS011;27925;41.874;12.526;2024-02-26T07:30:05;12.93;;;7.30;;
40537;SDS011;27925;41.874;12.526;2024-02-26T07:32:33;13.13;;;7.80;;
40537;SDS011;27925;41.874;12.526;2024-02-26T07:34:59;15.77;;;8.20;;
40537;SDS011;27925;41.874;12.526;2024-02-26T07:37:24;18.80;;;8.00;;
40537;SDS011;27925;41.874;12.526;2024-02-26T07:39:50;16.13;;;8.57;;
40537;SDS011;27925;41.874;12.526;2024-02-26T07:42:16;13.63;;;8.50;;
40537;SDS011;27925;41.874;12.526;2024-02-26T07:44:41;12.18;;;7.53;;
40537;SDS011;27925;41.874;12.526;2024-02-26T07:47:08;16.25;;;8.23;;
40537;SDS011;27925;41.874;12.526;2024-02-26T07:49:34;17.83;;;7.97;;
40537;SDS011;27925;41.874;12.526;2024-02-26T07:52:00;16.98;;;8.30;;
40537;SDS011;27925;41.874;12.526;2024-02-26T07:54:26;15.68;;;8.13;;
40537;SDS011;27925;41.874;12.526;2024-02-26T07:56:51;12.48;;;7.65;;
40537;SDS011;27925;41.874;12.526;2024-02-26T07:59:17;13.75;;;7.47;;
40537;SDS011;27925;41.874;12.526;2024-02-26T08:01:43;17.15;;;7.55;;
40537;SDS011;27925;41.874;12.526;2024-02-26T08:04:09;15.98;;;7.95;;
40537;SDS011;27925;41.874;12.526;2024-02-26T08:06:34;13.60;;;7.82;;
40537;SDS011;27925;41.874;12.526;2024-02-26T08:09:00;13.18;;;7.60;;
40537;SDS011;27925;41.874;12.526;2024-02-26T08:11:26;13.60;;;7.78;;
40537;SDS011;27925;41.874;12.526;2024-02-26T08:13:53;15.02;;;8.32;;
40537;SDS011;27925;41.874;12.526;2024-02-26T08:16:18;16.95;;;8.15;;
40537;SDS011;27925;41.874;12.526;2024-02-26T08:18:44;21.42;;;8.70;;
40537;SDS011;27925;41.874;12.526;2024-02-26T08:21:10;19.33;;;9.10;;
40537;SDS011;27925;41.874;12.526;2024-02-26T08:23:35;16.85;;;7.65;;
40537;SDS011;27925;41.874;12.526;2024-02-26T08:26:01;20.00;;;8.10;;
40537;SDS011;27925;41.874;12.526;2024-02-26T08:28:29;13.45;;;6.78;;
40537;SDS011;27925;41.874;12.526;2024-02-26T08:30:55;16.23;;;7.10;;
40537;SDS011;27925;41.874;12.526;2024-02-26T08:33:20;15.98;;;7.07;;
40537;SDS011;27925;41.874;12.526;2024-02-26T08:35:46;10.85;;;6.43;;
40537;SDS011;27925;41.874;12.526;2024-02-26T08:38:12;16.80;;;7.03;;
40537;SDS011;27925;41.874;12.526;2024-02-26T08:40:38;11.77;;;6.25;;
40537;SDS011;27925;41.874;12.526;2024-02-26T08:43:03;14.80;;;6.35;;
40537;SDS011;27925;41.874;12.526;2024-02-26T08:45:29;13.88;;;6.57;;
40537;SDS011;27925;41.874;12.526;2024-02-26T08:47:55;14.00;;;6.18;;
40537;SDS011;27925;41.874;12.526;2024-02-26T08:50:20;13.88;;;5.80;;
40537;SDS011;27925;41.874;12.526;2024-02-26T08:52:46;12.60;;;6.20;;
40537;SDS011;27925;41.874;12.526;2024-02-26T08:55:15;12.60;;;5.00;;
40537;SDS011;27925;41.874;12.526;2024-02-26T08:57:41;9.73;;;4.53;;
40537;SDS011;27925;41.874;12.526;2024-02-26T09:00:07;12.95;;;4.15;;
40537;SDS011;27925;41.874;12.526;2024-02-26T09:02:33;16.55;;;4.38;;
40537;SDS011;27925;41.874;12.526;2024-02-26T09:04:59;10.70;;;2.75;;
40537;SDS011;27925;41.874;12.526;2024-02-26T09:07:25;6.50;;;2.63;;
40537;SDS011;27925;41.874;12.526;2024-02-26T09:09:50;7.85;;;2.55;;
40537;SDS011;27925;41.874;12.526;2024-02-26T09:12:16;6.82;;;2.50;;
40537;SDS011;27925;41.874;12.526;2024-02-26T09:14:42;7.75;;;2.17;;
40537;SDS011;27925;41.874;12.526;2024-02-26T09:17:08;6.35;;;2.70;;
40537;SDS011;27925;41.874;12.526;2024-02-26T09:19:33;7.70;;;2.90;;
40537;SDS011;27925;41.874;12.526;2024-02-26T09:21:59;7.45;;;2.70;;
40537;SDS011;27925;41.874;12.526;2024-02-26T09:24:25;10.95;;;2.80;;
40537;SDS011;27925;41.874;12.526;2024-02-26T09:26:51;11.10;;;2.67;;
40537;SDS011;27925;41.874;12.526;2024-02-26T09:29:17;15.13;;;3.30;;
40537;SDS011;27925;41.874;12.526;2024-02-26T09:31:43;9.68;;;3.00;;
40537;SDS011;27925;41.874;12.526;2024-02-26T09:34:12;20.95;;;3.92;;
40537;SDS011;27925;41.874;12.526;2024-02-26T09:36:38;15.82;;;3.10;;
40537;SDS011;27925;41.874;12.526;2024-02-26T09:39:04;11.90;;;2.95;;
40537;SDS011;27925;41.874;12.526;2024-02-26T09:41:29;18.65;;;3.35;;
40537;SDS011;27925;41.874;12.526;2024-02-26T09:43:56;13.73;;;3.10;;
40537;SDS011;27925;41.874;12.526;2024-02-26T09:46:25;22.92;;;2.92;;
40537;SDS011;27925;41.874;12.526;2024-02-26T09:48:51;14.15;;;3.03;;
40537;SDS011;27925;41.874;12.526;2024-02-26T09:51:17;6.63;;;2.20;;
40537;SDS011;27925;41.874;12.526;2024-02-26T09:53:44;5.13;;;2.17;;
40537;SDS011;27925;41.874;12.526;2024-02-26T09:56:12;6.38;;;2.40;;
40537;SDS011;27925;41.874;12.526;2024-02-26T09:58:38;6.90;;;2.30;;
40537;SDS011;27925;41.874;12.526;2024-02-26T10:01:05;8.43;;;2.30;;
40537;SDS011;27925;41.874;12.526;2024-02-26T10:03:43;5.72;;;2.63;;
40537;SDS011;27925;41.874;12.526;2024-02-26T10:06:10;7.93;;;2.65;;
40537;SDS011;27925;41.874;12.526;2024-02-26T10:08:36;5.40;;;2.00;;
40537;SDS011;27925;41.874;12.526;2024-02-26T10:11:12;6.10;;;2.55;;
40537;SDS011;27925;41.874;12.526;2024-02-26T10:13:39;6.25;;;2.45;;
40537;SDS011;27925;41.874;12.526;2024-02-26T10:16:06;4.95;;;2.08;;
40537;SDS011;27925;41.874;12.526;2024-02-26T10:21:11;8.10;;;2.13;;
40537;SDS011;27925;41.874;12.526;2024-02-26T10:23:37;4.88;;;1.85;;
40537;SDS011;27925;41.874;12.526;2024-02-26T10:26:03;5.82;;;1.80;;
40537;SDS011;27925;41.874;12.526;2024-02-26T10:28:29;4.47;;;1.92;;
40537;SDS011;27925;41.874;12.526;2024-02-26T10:30:55;6.50;;;2.22;;
40537;SDS011;27925;41.874;12.526;2024-02-26T10:33:21;3.78;;;1.60;;
40537;SDS011;27925;41.874;12.526;2024-02-26T10:35:47;9.63;;;2.33;;
40537;SDS011;27925;41.874;12.526;2024-02-26T10:38:13;5.70;;;1.90;;
40537;SDS011;27925;41.874;12.526;2024-02-26T10:40:42;7.57;;;2.63;;
40537;SDS011;27925;41.874;12.526;2024-02-26T10:43:08;9.85;;;2.10;;
40537;SDS011;27925;41.874;12.526;2024-02-26T10:45:33;6.15;;;2.42;;
40537;SDS011;27925;41.874;12.526;2024-02-26T10:48:00;6.68;;;2.00;;
40537;SDS011;27925;41.874;12.526;2024-02-26T10:50:26;9.52;;;2.25;;
40537;SDS011;27925;41.874;12.526;2024-02-26T10:52:51;5.88;;;2.28;;
40537;SDS011;27925;41.874;12.526;2024-02-26T10:55:19;6.78;;;2.20;;
40537;SDS011;27925;41.874;12.526;2024-02-26T10:57:47;7.40;;;2.28;;
40537;SDS011;27925;41.874;12.526;2024-02-26T11:00:15;5.80;;;1.75;;
40537;SDS011;27925;41.874;12.526;2024-02-26T11:02:41;6.05;;;2.03;;
40537;SDS011;27925;41.874;12.526;2024-02-26T11:05:11;7.95;;;2.25;;
40537;SDS011;27925;41.874;12.526;2024-02-26T11:07:38;6.55;;;2.40;;
40537;SDS011;27925;41.874;12.526;2024-02-26T11:10:06;7.57;;;2.80;;
40537;SDS011;27925;41.874;12.526;2024-02-26T11:12:33;5.55;;;2.58;;
40537;SDS011;27925;41.874;12.526;2024-02-26T11:15:03;4.72;;;2.20;;
40537;SDS011;27925;41.874;12.526;2024-02-26T11:17:29;6.45;;;2.53;;
40537;SDS011;27925;41.874;12.526;2024-02-26T11:19:57;8.35;;;2.83;;
40537;SDS011;27925;41.874;12.526;2024-02-26T11:22:24;8.38;;;2.83;;
40537;SDS011;27925;41.874;12.526;2024-02-26T11:24:54;11.52;;;2.72;;
40537;SDS011;27925;41.874;12.526;2024-02-26T11:27:23;10.35;;;3.28;;
40537;SDS011;27925;41.874;12.526;2024-02-26T11:29:54;10.35;;;2.78;;
40537;SDS011;27925;41.874;12.526;2024-02-26T11:32:22;8.25;;;2.80;;
40537;SDS011;27925;41.874;12.526;2024-02-26T11:34:48;8.10;;;3.13;;
40537;SDS011;27925;41.874;12.526;2024-02-26T11:37:15;8.15;;;3.00;;
40537;SDS011;27925;41.874;12.526;2024-02-26T11:39:42;7.05;;;3.20;;
40537;SDS011;27925;41.874;12.526;2024-02-26T11:42:12;7.07;;;2.90;;
40537;SDS011;27925;41.874;12.526;2024-02-26T11:44:40;7.57;;;2.75;;
40537;SDS011;27925;41.874;12.526;2024-02-26T11:47:18;6.72;;;2.80;;
40537;SDS011;27925;41.874;12.526;2024-02-26T11:49:45;5.57;;;2.25;;
40537;SDS011;27925;41.874;12.526;2024-02-26T11:52:12;6.47;;;2.20;;
40537;SDS011;27925;41.874;12.526;2024-02-26T11:55:00;4.63;;;1.52;;
40537;SDS011;27925;41.874;12.526;2024-02-26T11:57:38;4.43;;;1.80;;
40537;SDS011;27925;41.874;12.526;2024-02-26T12:02:40;5.32;;;1.80;;
40537;SDS011;27925;41.874;12.526;2024-02-26T12:07:42;3.78;;;1.75;;
40537;SDS011;27925;41.874;12.526;2024-02-26T12:10:44;5.72;;;2.50;;
40537;SDS011;27925;41.874;12.526;2024-02-26T12:13:07;5.72;;;2.03;;
40537;SDS011;27925;41.874;12.526;2024-02-26T12:15:39;7.72;;;1.83;;
40537;SDS011;27925;41.874;12.526;2024-02-26T12:18:09;5.75;;;1.92;;
40537;SDS011;27925;41.874;12.526;2024-02-26T12:20:40;6.75;;;2.00;;
40537;SDS011;27925;41.874;12.526;2024-02-26T12:23:06;5.40;;;2.20;;
40537;SDS011;27925;41.874;12.526;2024-02-26T12:25:32;7.55;;;2.05;;
40537;SDS011;27925;41.874;12.526;2024-02-26T12:27:58;8.30;;;2.10;;
40537;SDS011;27925;41.874;12.526;2024-02-26T12:30:25;7.20;;;2.20;;
40537;SDS011;27925;41.874;12.526;2024-02-26T12:32:52;4.85;;;2.00;;
40537;SDS011;27925;41.874;12.526;2024-02-26T12:35:22;4.75;;;2.10;;
40537;SDS011;27925;41.874;12.526;2024-02-26T12:37:49;6.38;;;2.00;;
40537;SDS011;27925;41.874;12.526;2024-02-26T12:40:16;8.73;;;2.35;;
40537;SDS011;27925;41.874;12.526;2024-02-26T12:42:43;7.10;;;2.10;;
40537;SDS011;27925;41.874;12.526;2024-02-26T12:45:10;6.90;;;2.20;;
40537;SDS011;27925;41.874;12.526;2024-02-26T12:47:40;7.45;;;3.08;;
40537;SDS011;27925;41.874;12.526;2024-02-26T12:50:07;7.80;;;2.65;;
40537;SDS011;27925;41.874;12.526;2024-02-26T12:52:34;10.23;;;2.35;;
40537;SDS011;27925;41.874;12.526;2024-02-26T12:55:01;7.03;;;3.00;;
40537;SDS011;27925;41.874;12.526;2024-02-26T12:57:29;5.50;;;2.70;;
40537;SDS011;27925;41.874;12.526;2024-02-26T13:00:00;8.35;;;2.40;;
40537;SDS011;27925;41.874;12.526;2024-02-26T13:02:29;5.07;;;2.28;;
40537;SDS011;27925;41.874;12.526;2024-02-26T13:04:56;7.38;;;2.78;;
40537;SDS011;27925;41.874;12.526;2024-02-26T13:07:23;7.53;;;2.20;;
40537;SDS011;27925;41.874;12.526;2024-02-26T13:09:48;5.68;;;2.10;;
40537;SDS011;27925;41.874;12.526;2024-02-26T13:12:15;7.10;;;2.00;;
40537;SDS011;27925;41.874;12.526;2024-02-26T13:14:42;4.28;;;1.60;;
40537;SDS011;27925;41.874;12.526;2024-02-26T13:17:08;7.07;;;2.22;;
40537;SDS011;27925;41.874;12.526;2024-02-26T13:19:34;4.85;;;1.90;;
40537;SDS011;27925;41.874;12.526;2024-02-26T13:22:03;5.20;;;1.50;;
40537;SDS011;27925;41.874;12.526;2024-02-26T13:24:31;7.50;;;1.70;;
40537;SDS011;27925;41.874;12.526;2024-02-26T13:27:00;4.53;;;1.33;;
40537;SDS011;27925;41.874;12.526;2024-02-26T13:29:28;3.90;;;1.17;;
40537;SDS011;27925;41.874;12.526;2024-02-26T13:32:03;3.50;;;1.40;;
40537;SDS011;27925;41.874;12.526;2024-02-26T13:34:29;5.32;;;1.70;;
40537;SDS011;27925;41.874;12.526;2024-02-26T13:36:56;6.68;;;1.75;;
40537;SDS011;27925;41.874;12.526;2024-02-26T13:39:25;8.25;;;1.73;;
40537;SDS011;27925;41.874;12.526;2024-02-26T13:41:52;11.75;;;2.58;;
40537;SDS011;27925;41.874;12.526;2024-02-26T13:44:19;7.63;;;1.60;;
40537;SDS011;27925;41.874;12.526;2024-02-26T13:46:46;4.63;;;1.60;;
40537;SDS011;27925;41.874;12.526;2024-02-26T13:49:12;4.15;;;1.58;;
40537;SDS011;27925;41.874;12.526;2024-02-26T13:51:41;4.93;;;1.77;;
40537;SDS011;27925;41.874;12.526;2024-02-26T13:54:07;8.13;;;2.10;;
40537;SDS011;27925;41.874;12.526;2024-02-26T13:56:35;8.30;;;2.20;;
40537;SDS011;27925;41.874;12.526;2024-02-26T13:59:01;5.20;;;1.48;;
40537;SDS011;27925;41.874;12.526;2024-02-26T14:01:27;7.60;;;1.52;;
40537;SDS011;27925;41.874;12.526;2024-02-26T14:03:54;4.28;;;1.60;;
40537;SDS011;27925;41.874;12.526;2024-02-26T14:06:22;3.35;;;1.27;;
40537;SDS011;27925;41.874;12.526;2024-02-26T14:08:48;5.53;;;1.83;;
40537;SDS011;27925;41.874;12.526;2024-02-26T14:11:14;4.35;;;1.50;;
40537;SDS011;27925;41.874;12.526;2024-02-26T14:13:39;4.78;;;1.58;;
40537;SDS011;27925;41.874;12.526;2024-02-26T14:16:05;5.22;;;1.35;;
40537;SDS011;27925;41.874;12.526;2024-02-26T14:18:31;4.78;;;1.48;;
40537;SDS011;27925;41.874;12.526;2024-02-26T14:20:57;3.40;;;1.20;;
40537;SDS011;27925;41.874;12.526;2024-02-26T14:23:23;4.93;;;1.20;;
40537;SDS011;27925;41.874;12.526;2024-02-26T14:25:48;3.88;;;1.15;;